sensor_id;sensor_type;location;lat;lon;timestamp;P1;P2;P0
70520;PMS5003;58442;52.716;23.560;2023-02-28T00:00:19;3;3;2
70520;PMS5003;58442;52.716;23.560;2023-02-28T00:02:26;4;4;3
70520;PMS5003;58442;52.716;23.560;2023-02-28T00:04:28;4;4;3
70520;PMS5003;58442;52.716;23.560;2023-02-28T00:06:32;4;4;4
70520;PMS5003;58442;52.716;23.560;2023-02-28T00:08:33;8;8;4
70520;PMS5003;58442;52.716;23.560;2023-02-28T00:10:34;5;4;3
70520;PMS5003;58442;52.716;23.560;2023-02-28T00:12:37;4;4;4
70520;PMS5003;58442;52.716;23.560;2023-02-28T00:14:47;4;4;3
70520;PMS5003;58442;52.716;23.560;2023-02-28T00:16:48;4;4;3
70520;PMS5003;58442;52.716;23.560;2023-02-28T00:18:50;6;4;4
70520;PMS5003;58442;52.716;23.560;2023-02-28T00:20:52;5;5;3
70520;PMS5003;58442;52.716;23.560;2023-02-28T00:23:02;6;6;4
70520;PMS5003;58442;52.716;23.560;2023-02-28T00:25:03;6;6;4
70520;PMS5003;58442;52.716;23.560;2023-02-28T00:27:07;4;4;2
70520;PMS5003;58442;52.716;23.560;2023-02-28T00:29:08;3;3;2
70520;PMS5003;58442;52.716;23.560;2023-02-28T00:31:17;3;3;2
70520;PMS5003;58442;52.716;23.560;2023-02-28T00:33:18;4;4;3
70520;PMS5003;58442;52.716;23.560;2023-02-28T00:35:20;5;5;4
70520;PMS5003;58442;52.716;23.560;2023-02-28T00:37:21;7;7;3
70520;PMS5003;58442;52.716;23.560;2023-02-28T00:39:36;6;6;5
70520;PMS5003;58442;52.716;23.560;2023-02-28T00:41:38;7;7;5
70520;PMS5003;58442;52.716;23.560;2023-02-28T00:43:39;5;5;4
70520;PMS5003;58442;52.716;23.560;2023-02-28T00:45:40;6;6;5
70520;PMS5003;58442;52.716;23.560;2023-02-28T00:47:47;4;4;4
70520;PMS5003;58442;52.716;23.560;2023-02-28T00:49:50;6;6;4
70520;PMS5003;58442;52.716;23.560;2023-02-28T00:51:52;6;6;4
70520;PMS5003;58442;52.716;23.560;2023-02-28T00:53:54;7;7;4
70520;PMS5003;58442;52.716;23.560;2023-02-28T00:56:02;5;5;3
70520;PMS5003;58442;52.716;23.560;2023-02-28T00:58:04;12;12;7
70520;PMS5003;58442;52.716;23.560;2023-02-28T01:00:06;13;13;9
70520;PMS5003;58442;52.716;23.560;2023-02-28T01:02:09;15;15;10
70520;PMS5003;58442;52.716;23.560;2023-02-28T01:04:17;12;12;8
70520;PMS5003;58442;52.716;23.560;2023-02-28T01:06:18;14;14;10
70520;PMS5003;58442;52.716;23.560;2023-02-28T01:08:20;18;18;12
70520;PMS5003;58442;52.716;23.560;2023-02-28T01:10:21;18;18;11
70520;PMS5003;58442;52.716;23.560;2023-02-28T01:12:32;16;16;12
70520;PMS5003;58442;52.716;23.560;2023-02-28T01:14:34;18;18;13
70520;PMS5003;58442;52.716;23.560;2023-02-28T01:16:36;20;19;13
70520;PMS5003;58442;52.716;23.560;2023-02-28T01:18:37;28;25;16
70520;PMS5003;58442;52.716;23.560;2023-02-28T01:20:48;21;21;13
70520;PMS5003;58442;52.716;23.560;2023-02-28T01:22:49;23;23;14
70520;PMS5003;58442;52.716;23.560;2023-02-28T01:24:51;24;22;12
70520;PMS5003;58442;52.716;23.560;2023-02-28T01:26:52;18;17;12
70520;PMS5003;58442;52.716;23.560;2023-02-28T01:29:02;27;22;11
70520;PMS5003;58442;52.716;23.560;2023-02-28T01:31:04;19;17;8
70520;PMS5003;58442;52.716;23.560;2023-02-28T01:33:06;18;18;13
70520;PMS5003;58442;52.716;23.560;2023-02-28T01:35:07;23;22;12
70520;PMS5003;58442;52.716;23.560;2023-02-28T01:37:18;17;15;7
70520;PMS5003;58442;52.716;23.560;2023-02-28T01:39:19;21;20;10
70520;PMS5003;58442;52.716;23.560;2023-02-28T01:41:23;24;23;13
70520;PMS5003;58442;52.716;23.560;2023-02-28T01:43:27;27;26;13
70520;PMS5003;58442;52.716;23.560;2023-02-28T01:45:34;25;25;15
70520;PMS5003;58442;52.716;23.560;2023-02-28T01:47:38;19;19;10
70520;PMS5003;58442;52.716;23.560;2023-02-28T01:49:42;22;21;12
70520;PMS5003;58442;52.716;23.560;2023-02-28T01:51:45;20;19;12
70520;PMS5003;58442;52.716;23.560;2023-02-28T01:53:55;24;20;11
70520;PMS5003;58442;52.716;23.560;2023-02-28T01:56:00;25;24;13
70520;PMS5003;58442;52.716;23.560;2023-02-28T01:58:06;22;19;9
70520;PMS5003;58442;52.716;23.560;2023-02-28T02:00:11;23;23;10
70520;PMS5003;58442;52.716;23.560;2023-02-28T02:02:16;34;26;13
70520;PMS5003;58442;52.716;23.560;2023-02-28T02:04:19;26;20;13
70520;PMS5003;58442;52.716;23.560;2023-02-28T02:06:24;20;20;13
70520;PMS5003;58442;52.716;23.560;2023-02-28T02:08:28;15;15;11
70520;PMS5003;58442;52.716;23.560;2023-02-28T02:10:35;16;14;8
70520;PMS5003;58442;52.716;23.560;2023-02-28T02:17:39;12;12;7
70520;PMS5003;58442;52.716;23.560;2023-02-28T02:24:42;13;11;7
70520;PMS5003;58442;52.716;23.560;2023-02-28T02:36:25;11;11;5
70520;PMS5003;58442;52.716;23.560;2023-02-28T02:38:35;10;10;5
70520;PMS5003;58442;52.716;23.560;2023-02-28T02:40:51;9;8;4
70520;PMS5003;58442;52.716;23.560;2023-02-28T02:45:16;8;8;5
70520;PMS5003;58442;52.716;23.560;2023-02-28T02:47:24;5;5;3
70520;PMS5003;58442;52.716;23.560;2023-02-28T02:49:32;6;6;5
70520;PMS5003;58442;52.716;23.560;2023-02-28T02:51:36;9;8;4
70520;PMS5003;58442;52.716;23.560;2023-02-28T02:53:45;10;9;6
70520;PMS5003;58442;52.716;23.560;2023-02-28T02:55:52;10;10;6
70520;PMS5003;58442;52.716;23.560;2023-02-28T02:57:57;11;11;6
70520;PMS5003;58442;52.716;23.560;2023-02-28T03:00:11;8;8;4
70520;PMS5003;58442;52.716;23.560;2023-02-28T03:02:15;8;8;5
70520;PMS5003;58442;52.716;23.560;2023-02-28T03:04:21;10;10;4
70520;PMS5003;58442;52.716;23.560;2023-02-28T03:06:25;9;9;6
70520;PMS5003;58442;52.716;23.560;2023-02-28T03:08:28;8;8;5
70520;PMS5003;58442;52.716;23.560;2023-02-28T03:10:32;11;8;4
70520;PMS5003;58442;52.716;23.560;2023-02-28T03:17:07;8;8;5
70520;PMS5003;58442;52.716;23.560;2023-02-28T03:22:13;9;9;3
70520;PMS5003;58442;52.716;23.560;2023-02-28T03:23:47;8;7;5
70520;PMS5003;58442;52.716;23.560;2023-02-28T03:26:12;12;12;5
70520;PMS5003;58442;52.716;23.560;2023-02-28T03:28:30;8;8;5
70520;PMS5003;58442;52.716;23.560;2023-02-28T03:33:13;8;8;5
70520;PMS5003;58442;52.716;23.560;2023-02-28T03:35:10;11;8;4
70520;PMS5003;58442;52.716;23.560;2023-02-28T03:37:22;6;6;5
70520;PMS5003;58442;52.716;23.560;2023-02-28T03:44:04;5;5;4
70520;PMS5003;58442;52.716;23.560;2023-02-28T03:46:12;8;8;5
70520;PMS5003;58442;52.716;23.560;2023-02-28T03:48:17;7;7;4
70520;PMS5003;58442;52.716;23.560;2023-02-28T03:50:35;6;6;5
70520;PMS5003;58442;52.716;23.560;2023-02-28T03:52:40;8;7;4
70520;PMS5003;58442;52.716;23.560;2023-02-28T03:54:50;7;7;4
70520;PMS5003;58442;52.716;23.560;2023-02-28T03:57:08;8;8;5
70520;PMS5003;58442;52.716;23.560;2023-02-28T03:59:26;6;6;6
70520;PMS5003;58442;52.716;23.560;2023-02-28T04:01:38;7;7;4
70520;PMS5003;58442;52.716;23.560;2023-02-28T04:03:45;9;9;5
70520;PMS5003;58442;52.716;23.560;2023-02-28T04:05:51;8;8;6
70520;PMS5003;58442;52.716;23.560;2023-02-28T04:07:54;9;9;6
70520;PMS5003;58442;52.716;23.560;2023-02-28T04:10:11;10;10;6
70520;PMS5003;58442;52.716;23.560;2023-02-28T04:12:14;9;8;6
70520;PMS5003;58442;52.716;23.560;2023-02-28T04:14:15;10;10;5
70520;PMS5003;58442;52.716;23.560;2023-02-28T04:16:16;9;9;7
70520;PMS5003;58442;52.716;23.560;2023-02-28T04:18:26;10;10;6
70520;PMS5003;58442;52.716;23.560;2023-02-28T04:20:28;9;9;4
70520;PMS5003;58442;52.716;23.560;2023-02-28T04:22:29;7;7;3
70520;PMS5003;58442;52.716;23.560;2023-02-28T04:24:30;10;10;4
70520;PMS5003;58442;52.716;23.560;2023-02-28T04:26:42;8;8;5
70520;PMS5003;58442;52.716;23.560;2023-02-28T04:28:45;8;8;4
70520;PMS5003;58442;52.716;23.560;2023-02-28T04:30:46;7;7;5
70520;PMS5003;58442;52.716;23.560;2023-02-28T04:32:48;11;11;6
70520;PMS5003;58442;52.716;23.560;2023-02-28T04:34:56;9;9;4
70520;PMS5003;58442;52.716;23.560;2023-02-28T04:36:58;12;8;6
70520;PMS5003;58442;52.716;23.560;2023-02-28T04:39:01;10;10;6
70520;PMS5003;58442;52.716;23.560;2023-02-28T04:41:02;9;8;5
70520;PMS5003;58442;52.716;23.560;2023-02-28T04:43:11;7;7;3
70520;PMS5003;58442;52.716;23.560;2023-02-28T04:45:13;8;8;5
70520;PMS5003;58442;52.716;23.560;2023-02-28T04:47:14;11;8;4
70520;PMS5003;58442;52.716;23.560;2023-02-28T04:49:15;9;8;4
70520;PMS5003;58442;52.716;23.560;2023-02-28T04:51:27;8;8;7
70520;PMS5003;58442;52.716;23.560;2023-02-28T04:53:28;11;10;6
70520;PMS5003;58442;52.716;23.560;2023-02-28T04:55:30;6;6;4
70520;PMS5003;58442;52.716;23.560;2023-02-28T04:57:31;12;10;6
70520;PMS5003;58442;52.716;23.560;2023-02-28T04:59:42;13;13;7
70520;PMS5003;58442;52.716;23.560;2023-02-28T05:01:45;10;10;7
70520;PMS5003;58442;52.716;23.560;2023-02-28T05:03:49;8;8;4
70520;PMS5003;58442;52.716;23.560;2023-02-28T05:05:51;8;8;4
70520;PMS5003;58442;52.716;23.560;2023-02-28T05:07:57;9;8;4
70520;PMS5003;58442;52.716;23.560;2023-02-28T05:09:58;8;8;5
70520;PMS5003;58442;52.716;23.560;2023-02-28T05:12:00;9;9;6
70520;PMS5003;58442;52.716;23.560;2023-02-28T05:14:02;9;9;5
70520;PMS5003;58442;52.716;23.560;2023-02-28T05:16:12;5;4;2
70520;PMS5003;58442;52.716;23.560;2023-02-28T05:18:13;10;9;5
70520;PMS5003;58442;52.716;23.560;2023-02-28T05:20:15;10;10;5
70520;PMS5003;58442;52.716;23.560;2023-02-28T05:22:16;8;8;5
70520;PMS5003;58442;52.716;23.560;2023-02-28T05:24:27;9;9;4
70520;PMS5003;58442;52.716;23.560;2023-02-28T05:26:29;6;6;4
70520;PMS5003;58442;52.716;23.560;2023-02-28T05:28:31;8;8;4
70520;PMS5003;58442;52.716;23.560;2023-02-28T05:30:32;5;5;3
70520;PMS5003;58442;52.716;23.560;2023-02-28T05:32:42;6;6;4
70520;PMS5003;58442;52.716;23.560;2023-02-28T05:34:43;7;7;5
70520;PMS5003;58442;52.716;23.560;2023-02-28T05:36:45;5;5;3
70520;PMS5003;58442;52.716;23.560;2023-02-28T05:38:47;7;7;4
70520;PMS5003;58442;52.716;23.560;2023-02-28T05:40:57;7;7;5
70520;PMS5003;58442;52.716;23.560;2023-02-28T05:42:59;9;9;5
70520;PMS5003;58442;52.716;23.560;2023-02-28T05:45:00;9;9;5
70520;PMS5003;58442;52.716;23.560;2023-02-28T05:47:01;9;8;5
70520;PMS5003;58442;52.716;23.560;2023-02-28T05:49:12;8;8;5
70520;PMS5003;58442;52.716;23.560;2023-02-28T05:51:13;7;7;6
70520;PMS5003;58442;52.716;23.560;2023-02-28T05:53:15;8;8;5
70520;PMS5003;58442;52.716;23.560;2023-02-28T05:55:17;9;9;5
70520;PMS5003;58442;52.716;23.560;2023-02-28T05:57:27;6;6;4
70520;PMS5003;58442;52.716;23.560;2023-02-28T05:59:28;6;6;3
70520;PMS5003;58442;52.716;23.560;2023-02-28T06:01:34;8;8;4
70520;PMS5003;58442;52.716;23.560;2023-02-28T06:03:40;7;7;5
70520;PMS5003;58442;52.716;23.560;2023-02-28T06:05:42;10;10;5
70520;PMS5003;58442;52.716;23.560;2023-02-28T06:07:44;9;9;6
70520;PMS5003;58442;52.716;23.560;2023-02-28T06:09:45;8;8;5
70520;PMS5003;58442;52.716;23.560;2023-02-28T06:11:46;13;11;6
70520;PMS5003;58442;52.716;23.560;2023-02-28T06:13:58;7;7;5
70520;PMS5003;58442;52.716;23.560;2023-02-28T06:16:01;8;8;6
70520;PMS5003;58442;52.716;23.560;2023-02-28T06:18:02;9;9;5
70520;PMS5003;58442;52.716;23.560;2023-02-28T06:20:04;9;9;6
70520;PMS5003;58442;52.716;23.560;2023-02-28T06:22:12;8;7;4
70520;PMS5003;58442;52.716;23.560;2023-02-28T06:24:14;6;6;4
70520;PMS5003;58442;52.716;23.560;2023-02-28T06:26:15;9;9;5
70520;PMS5003;58442;52.716;23.560;2023-02-28T06:28:17;9;8;5
70520;PMS5003;58442;52.716;23.560;2023-02-28T06:30:27;6;6;2
70520;PMS5003;58442;52.716;23.560;2023-02-28T06:32:31;11;11;5
70520;PMS5003;58442;52.716;23.560;2023-02-28T06:34:33;15;13;6
70520;PMS5003;58442;52.716;23.560;2023-02-28T06:36:37;12;12;7
70520;PMS5003;58442;52.716;23.560;2023-02-28T06:38:43;11;11;8
70520;PMS5003;58442;52.716;23.560;2023-02-28T06:40:44;15;14;6
70520;PMS5003;58442;52.716;23.560;2023-02-28T06:42:51;12;11;7
70520;PMS5003;58442;52.716;23.560;2023-02-28T06:44:52;13;13;8
70520;PMS5003;58442;52.716;23.560;2023-02-28T06:46:58;4;4;3
70520;PMS5003;58442;52.716;23.560;2023-02-28T06:48:59;7;7;3
70520;PMS5003;58442;52.716;23.560;2023-02-28T06:51:01;9;7;6
70520;PMS5003;58442;52.716;23.560;2023-02-28T06:53:04;11;10;6
70520;PMS5003;58442;52.716;23.560;2023-02-28T06:55:13;7;7;4
70520;PMS5003;58442;52.716;23.560;2023-02-28T06:57:14;9;9;5
70520;PMS5003;58442;52.716;23.560;2023-02-28T06:59:16;8;8;5
70520;PMS5003;58442;52.716;23.560;2023-02-28T07:01:17;10;10;6
70520;PMS5003;58442;52.716;23.560;2023-02-28T07:03:28;6;6;5
70520;PMS5003;58442;52.716;23.560;2023-02-28T07:05:29;14;14;8
70520;PMS5003;58442;52.716;23.560;2023-02-28T07:07:31;10;10;6
70520;PMS5003;58442;52.716;23.560;2023-02-28T07:09:33;8;8;6
70520;PMS5003;58442;52.716;23.560;2023-02-28T07:11:43;5;4;2
70520;PMS5003;58442;52.716;23.560;2023-02-28T07:13:44;9;9;5
70520;PMS5003;58442;52.716;23.560;2023-02-28T07:17:56;6;6;4
70520;PMS5003;58442;52.716;23.560;2023-02-28T07:19:58;8;7;3
70520;PMS5003;58442;52.716;23.560;2023-02-28T07:21:59;7;5;3
70520;PMS5003;58442;52.716;23.560;2023-02-28T07:24:03;7;6;4
70520;PMS5003;58442;52.716;23.560;2023-02-28T07:26:05;6;6;4
70520;PMS5003;58442;52.716;23.560;2023-02-28T07:28:13;7;7;5
70520;PMS5003;58442;52.716;23.560;2023-02-28T07:30:15;12;12;4
70520;PMS5003;58442;52.716;23.560;2023-02-28T07:32:17;9;9;6
70520;PMS5003;58442;52.716;23.560;2023-02-28T07:34:19;10;9;5
70520;PMS5003;58442;52.716;23.560;2023-02-28T07:36:28;10;10;6
70520;PMS5003;58442;52.716;23.560;2023-02-28T07:38:30;4;4;3
70520;PMS5003;58442;52.716;23.560;2023-02-28T07:40:31;9;9;5
70520;PMS5003;58442;52.716;23.560;2023-02-28T07:42:33;7;7;4
70520;PMS5003;58442;52.716;23.560;2023-02-28T07:44:43;6;6;3
70520;PMS5003;58442;52.716;23.560;2023-02-28T07:46:44;5;5;4
70520;PMS5003;58442;52.716;23.560;2023-02-28T07:48:46;8;8;5
70520;PMS5003;58442;52.716;23.560;2023-02-28T07:52:58;9;9;4
70520;PMS5003;58442;52.716;23.560;2023-02-28T07:55:00;3;3;0
70520;PMS5003;58442;52.716;23.560;2023-02-28T07:57:01;10;10;5
70520;PMS5003;58442;52.716;23.560;2023-02-28T07:59:03;8;7;5
70520;PMS5003;58442;52.716;23.560;2023-02-28T08:01:13;9;8;4
70520;PMS5003;58442;52.716;23.560;2023-02-28T08:03:15;5;5;4
70520;PMS5003;58442;52.716;23.560;2023-02-28T08:05:17;7;7;5
70520;PMS5003;58442;52.716;23.560;2023-02-28T08:07:19;11;11;6
70520;PMS5003;58442;52.716;23.560;2023-02-28T08:09:28;11;10;6
70520;PMS5003;58442;52.716;23.560;2023-02-28T08:11:30;11;11;5
70520;PMS5003;58442;52.716;23.560;2023-02-28T08:13:32;13;11;6
70520;PMS5003;58442;52.716;23.560;2023-02-28T08:15:33;7;7;3
70520;PMS5003;58442;52.716;23.560;2023-02-28T08:17:43;10;10;7
70520;PMS5003;58442;52.716;23.560;2023-02-28T08:19:45;18;17;7
70520;PMS5003;58442;52.716;23.560;2023-02-28T08:21:47;15;15;8
70520;PMS5003;58442;52.716;23.560;2023-02-28T08:27:55;15;14;8
70520;PMS5003;58442;52.716;23.560;2023-02-28T08:29:56;10;9;5
70520;PMS5003;58442;52.716;23.560;2023-02-28T08:32:02;11;10;4
70520;PMS5003;58442;52.716;23.560;2023-02-28T08:34:10;10;9;7
70520;PMS5003;58442;52.716;23.560;2023-02-28T08:36:13;14;11;5
70520;PMS5003;58442;52.716;23.560;2023-02-28T08:38:16;14;12;6
70520;PMS5003;58442;52.716;23.560;2023-02-28T08:40:18;15;14;8
70520;PMS5003;58442;52.716;23.560;2023-02-28T08:42:19;13;12;8
70520;PMS5003;58442;52.716;23.560;2023-02-28T08:44:21;15;15;7
70520;PMS5003;58442;52.716;23.560;2023-02-28T08:46:22;14;14;6
70520;PMS5003;58442;52.716;23.560;2023-02-28T08:48:34;14;13;7
70520;PMS5003;58442;52.716;23.560;2023-02-28T08:50:38;16;15;6
70520;PMS5003;58442;52.716;23.560;2023-02-28T08:52:39;11;11;4
70520;PMS5003;58442;52.716;23.560;2023-02-28T08:54:44;14;12;8
70520;PMS5003;58442;52.716;23.560;2023-02-28T08:56:48;17;14;8
70520;PMS5003;58442;52.716;23.560;2023-02-28T08:58:49;12;11;6
70520;PMS5003;58442;52.716;23.560;2023-02-28T09:00:51;14;13;6
70520;PMS5003;58442;52.716;23.560;2023-02-28T09:02:53;13;12;6
70520;PMS5003;58442;52.716;23.560;2023-02-28T09:05:03;17;15;7
70520;PMS5003;58442;52.716;23.560;2023-02-28T09:07:05;10;9;5
70520;PMS5003;58442;52.716;23.560;2023-02-28T09:09:06;10;9;5
70520;PMS5003;58442;52.716;23.560;2023-02-28T09:11:10;9;9;5
70520;PMS5003;58442;52.716;23.560;2023-02-28T09:13:18;8;8;5
70520;PMS5003;58442;52.716;23.560;2023-02-28T09:15:20;10;10;5
70520;PMS5003;58442;52.716;23.560;2023-02-28T09:17:21;12;9;5
70520;PMS5003;58442;52.716;23.560;2023-02-28T09:19:22;16;15;7
70520;PMS5003;58442;52.716;23.560;2023-02-28T09:21:33;11;11;6
70520;PMS5003;58442;52.716;23.560;2023-02-28T09:23:34;10;10;5
70520;PMS5003;58442;52.716;23.560;2023-02-28T09:25:44;8;8;4
70520;PMS5003;58442;52.716;23.560;2023-02-28T09:27:48;9;8;5
70520;PMS5003;58442;52.716;23.560;2023-02-28T09:29:50;10;9;4
70520;PMS5003;58442;52.716;23.560;2023-02-28T09:31:51;10;9;5
70520;PMS5003;58442;52.716;23.560;2023-02-28T09:33:53;11;11;4
70520;PMS5003;58442;52.716;23.560;2023-02-28T09:35:59;11;10;6
70520;PMS5003;58442;52.716;23.560;2023-02-28T09:38:03;11;8;5
70520;PMS5003;58442;52.716;23.560;2023-02-28T09:40:08;9;9;4
70520;PMS5003;58442;52.716;23.560;2023-02-28T09:42:13;11;9;5
70520;PMS5003;58442;52.716;23.560;2023-02-28T09:44:26;8;8;4
70520;PMS5003;58442;52.716;23.560;2023-02-28T09:46:33;14;13;7
70520;PMS5003;58442;52.716;23.560;2023-02-28T09:48:41;9;7;4
70520;PMS5003;58442;52.716;23.560;2023-02-28T09:53:01;12;10;4
70520;PMS5003;58442;52.716;23.560;2023-02-28T09:55:50;18;15;6
70520;PMS5003;58442;52.716;23.560;2023-02-28T10:01:56;8;8;5
70520;PMS5003;58442;52.716;23.560;2023-02-28T10:06:30;14;11;6
70520;PMS5003;58442;52.716;23.560;2023-02-28T10:10:56;9;9;4
70520;PMS5003;58442;52.716;23.560;2023-02-28T10:13:02;7;6;3
70520;PMS5003;58442;52.716;23.560;2023-02-28T10:15:07;14;9;5
70520;PMS5003;58442;52.716;23.560;2023-02-28T10:17:19;5;5;3
70520;PMS5003;58442;52.716;23.560;2023-02-28T10:19:30;12;12;5
70520;PMS5003;58442;52.716;23.560;2023-02-28T10:21:39;10;10;5
70520;PMS5003;58442;52.716;23.560;2023-02-28T10:23:46;10;8;5
70520;PMS5003;58442;52.716;23.560;2023-02-28T10:25:58;8;7;2
70520;PMS5003;58442;52.716;23.560;2023-02-28T10:30:13;8;5;3
70520;PMS5003;58442;52.716;23.560;2023-02-28T10:32:19;8;8;5
70520;PMS5003;58442;52.716;23.560;2023-02-28T10:34:29;11;9;4
70520;PMS5003;58442;52.716;23.560;2023-02-28T10:36:30;11;11;6
70520;PMS5003;58442;52.716;23.560;2023-02-28T10:38:40;10;9;6
70520;PMS5003;58442;52.716;23.560;2023-02-28T10:40:42;12;11;4
70520;PMS5003;58442;52.716;23.560;2023-02-28T10:49:22;8;7;4
70520;PMS5003;58442;52.716;23.560;2023-02-28T10:51:25;11;11;6
70520;PMS5003;58442;52.716;23.560;2023-02-28T10:53:33;14;14;8
70520;PMS5003;58442;52.716;23.560;2023-02-28T10:55:38;9;9;5
70520;PMS5003;58442;52.716;23.560;2023-02-28T10:57:40;8;8;4
70520;PMS5003;58442;52.716;23.560;2023-02-28T10:59:41;15;13;5
70520;PMS5003;58442;52.716;23.560;2023-02-28T11:01:46;5;5;4
70520;PMS5003;58442;52.716;23.560;2023-02-28T11:03:53;11;10;6
70520;PMS5003;58442;52.716;23.560;2023-02-28T11:05:55;15;13;6
70520;PMS5003;58442;52.716;23.560;2023-02-28T11:07:59;10;9;5
70520;PMS5003;58442;52.716;23.560;2023-02-28T11:10:13;9;9;5
70520;PMS5003;58442;52.716;23.560;2023-02-28T11:14:39;8;8;5
70520;PMS5003;58442;52.716;23.560;2023-02-28T11:16:46;10;10;7
70520;PMS5003;58442;52.716;23.560;2023-02-28T11:18:56;11;10;4
70520;PMS5003;58442;52.716;23.560;2023-02-28T11:21:00;10;9;4
70520;PMS5003;58442;52.716;23.560;2023-02-28T11:23:03;10;10;6
70520;PMS5003;58442;52.716;23.560;2023-02-28T11:25:07;8;8;4
70520;PMS5003;58442;52.716;23.560;2023-02-28T11:29:32;10;10;5
70520;PMS5003;58442;52.716;23.560;2023-02-28T11:31:37;10;10;4
70520;PMS5003;58442;52.716;23.560;2023-02-28T11:33:58;9;8;5
70520;PMS5003;58442;52.716;23.560;2023-02-28T11:35:52;4;4;3
70520;PMS5003;58442;52.716;23.560;2023-02-28T11:37:56;7;7;6
70520;PMS5003;58442;52.716;23.560;2023-02-28T11:40:31;12;9;5
70520;PMS5003;58442;52.716;23.560;2023-02-28T11:44:37;8;8;6
70520;PMS5003;58442;52.716;23.560;2023-02-28T11:53:22;15;14;7
70520;PMS5003;58442;52.716;23.560;2023-02-28T11:55:42;7;7;3
70520;PMS5003;58442;52.716;23.560;2023-02-28T11:57:56;7;7;4
70520;PMS5003;58442;52.716;23.560;2023-02-28T12:09:04;11;11;6
70520;PMS5003;58442;52.716;23.560;2023-02-28T12:16:09;8;8;5
70520;PMS5003;58442;52.716;23.560;2023-02-28T12:18:24;7;6;3
70520;PMS5003;58442;52.716;23.560;2023-02-28T12:20:46;10;10;7
70520;PMS5003;58442;52.716;23.560;2023-02-28T12:27:46;9;9;5
70520;PMS5003;58442;52.716;23.560;2023-02-28T12:29:53;8;7;4
70520;PMS5003;58442;52.716;23.560;2023-02-28T12:34:14;7;7;4
70520;PMS5003;58442;52.716;23.560;2023-02-28T12:36:21;8;8;6
70520;PMS5003;58442;52.716;23.560;2023-02-28T12:38:44;7;7;5
70520;PMS5003;58442;52.716;23.560;2023-02-28T12:40:52;5;5;3
70520;PMS5003;58442;52.716;23.560;2023-02-28T12:43:09;12;12;7
70520;PMS5003;58442;52.716;23.560;2023-02-28T12:47:24;8;8;5
70520;PMS5003;58442;52.716;23.560;2023-02-28T12:49:27;10;8;3
70520;PMS5003;58442;52.716;23.560;2023-02-28T12:51:35;6;6;5
70520;PMS5003;58442;52.716;23.560;2023-02-28T13:00:19;6;6;5
70520;PMS5003;58442;52.716;23.560;2023-02-28T13:04:42;11;11;5
70520;PMS5003;58442;52.716;23.560;2023-02-28T13:09:20;4;4;3
70520;PMS5003;58442;52.716;23.560;2023-02-28T13:11:25;10;10;6
70520;PMS5003;58442;52.716;23.560;2023-02-28T13:13:32;11;11;8
70520;PMS5003;58442;52.716;23.560;2023-02-28T13:15:33;7;7;5
70520;PMS5003;58442;52.716;23.560;2023-02-28T13:17:44;9;9;5
70520;PMS5003;58442;52.716;23.560;2023-02-28T13:19:58;7;7;5
70520;PMS5003;58442;52.716;23.560;2023-02-28T13:22:00;7;7;5
70520;PMS5003;58442;52.716;23.560;2023-02-28T13:24:03;8;8;6
70520;PMS5003;58442;52.716;23.560;2023-02-28T13:26:06;7;7;5
70520;PMS5003;58442;52.716;23.560;2023-02-28T13:28:13;5;5;4
70520;PMS5003;58442;52.716;23.560;2023-02-28T13:32:33;8;8;5
70520;PMS5003;58442;52.716;23.560;2023-02-28T13:37:20;11;11;6
70520;PMS5003;58442;52.716;23.560;2023-02-28T13:48:16;6;6;5
70520;PMS5003;58442;52.716;23.560;2023-02-28T13:50:24;8;8;5
70520;PMS5003;58442;52.716;23.560;2023-02-28T13:52:31;10;9;5
70520;PMS5003;58442;52.716;23.560;2023-02-28T13:59:16;7;7;4
70520;PMS5003;58442;52.716;23.560;2023-02-28T14:01:36;4;4;1
70520;PMS5003;58442;52.716;23.560;2023-02-28T14:03:57;8;8;4
70520;PMS5003;58442;52.716;23.560;2023-02-28T14:06:15;7;7;5
70520;PMS5003;58442;52.716;23.560;2023-02-28T14:08:32;8;7;5
70520;PMS5003;58442;52.716;23.560;2023-02-28T14:10:37;7;7;5
70520;PMS5003;58442;52.716;23.560;2023-02-28T14:15:01;7;7;4
70520;PMS5003;58442;52.716;23.560;2023-02-28T14:17:07;4;4;3
70520;PMS5003;58442;52.716;23.560;2023-02-28T14:19:15;6;6;4
70520;PMS5003;58442;52.716;23.560;2023-02-28T14:21:28;4;4;3
70520;PMS5003;58442;52.716;23.560;2023-02-28T14:23:42;7;7;4
70520;PMS5003;58442;52.716;23.560;2023-02-28T14:37:02;9;8;5
70520;PMS5003;58442;52.716;23.560;2023-02-28T14:39:06;8;8;4
70520;PMS5003;58442;52.716;23.560;2023-02-28T14:41:14;1;1;1
70520;PMS5003;58442;52.716;23.560;2023-02-28T14:43:23;6;6;4
70520;PMS5003;58442;52.716;23.560;2023-02-28T14:45:27;6;6;5
70520;PMS5003;58442;52.716;23.560;2023-02-28T14:47:38;6;6;4
70520;PMS5003;58442;52.716;23.560;2023-02-28T14:49:44;7;7;4
70520;PMS5003;58442;52.716;23.560;2023-02-28T14:52:01;5;5;4
70520;PMS5003;58442;52.716;23.560;2023-02-28T14:54:03;5;5;2
70520;PMS5003;58442;52.716;23.560;2023-02-28T14:56:06;8;8;4
70520;PMS5003;58442;52.716;23.560;2023-02-28T15:00:33;8;7;4
70520;PMS5003;58442;52.716;23.560;2023-02-28T15:02:34;4;4;2
70520;PMS5003;58442;52.716;23.560;2023-02-28T15:04:36;7;7;4
70520;PMS5003;58442;52.716;23.560;2023-02-28T15:06:38;6;6;4
70520;PMS5003;58442;52.716;23.560;2023-02-28T15:08:39;10;9;4
70520;PMS5003;58442;52.716;23.560;2023-02-28T15:12:58;11;11;8
70520;PMS5003;58442;52.716;23.560;2023-02-28T15:15:02;27;27;20
70520;PMS5003;58442;52.716;23.560;2023-02-28T15:17:16;28;26;16
70520;PMS5003;58442;52.716;23.560;2023-02-28T15:19:27;31;31;19
70520;PMS5003;58442;52.716;23.560;2023-02-28T15:21:38;44;37;21
70520;PMS5003;58442;52.716;23.560;2023-02-28T15:23:43;56;37;23
70520;PMS5003;58442;52.716;23.560;2023-02-28T15:25:50;23;23;16
70520;PMS5003;58442;52.716;23.560;2023-02-28T15:28:00;68;53;28
70520;PMS5003;58442;52.716;23.560;2023-02-28T15:30:06;37;31;15
70520;PMS5003;58442;52.716;23.560;2023-02-28T15:36:40;58;43;25
70520;PMS5003;58442;52.716;23.560;2023-02-28T15:38:42;45;36;21
70520;PMS5003;58442;52.716;23.560;2023-02-28T15:40:46;37;33;17
70520;PMS5003;58442;52.716;23.560;2023-02-28T15:45:26;26;22;14
70520;PMS5003;58442;52.716;23.560;2023-02-28T15:47:20;27;23;13
70520;PMS5003;58442;52.716;23.560;2023-02-28T15:49:24;14;14;8
70520;PMS5003;58442;52.716;23.560;2023-02-28T15:51:31;14;14;10
70520;PMS5003;58442;52.716;23.560;2023-02-28T15:56:03;29;28;14
70520;PMS5003;58442;52.716;23.560;2023-02-28T15:58:07;31;28;18
70520;PMS5003;58442;52.716;23.560;2023-02-28T16:00:14;28;27;14
70520;PMS5003;58442;52.716;23.560;2023-02-28T16:04:33;23;21;12
70520;PMS5003;58442;52.716;23.560;2023-02-28T16:06:35;19;15;9
70520;PMS5003;58442;52.716;23.560;2023-02-28T16:08:44;23;20;12
70520;PMS5003;58442;52.716;23.560;2023-02-28T16:10:46;15;15;10
70520;PMS5003;58442;52.716;23.560;2023-02-28T16:12:48;18;17;9
70520;PMS5003;58442;52.716;23.560;2023-02-28T16:14:50;9;9;7
70520;PMS5003;58442;52.716;23.560;2023-02-28T16:16:54;9;9;6
70520;PMS5003;58442;52.716;23.560;2023-02-28T16:18:58;16;16;6